createdAt,value
2018-06-13T00:00:16.848Z,8.80
2018-06-13T00:02:44.418Z,9.00
2018-06-13T00:05:12.601Z,8.60
2018-06-13T00:07:40.506Z,7.00
2018-06-13T00:10:08.716Z,8.00
2018-06-13T00:12:36.342Z,8.80
2018-06-13T00:15:06.270Z,7.00
2018-06-13T00:17:34.779Z,9.20
2018-06-13T00:20:02.391Z,8.80
2018-06-13T00:22:30.415Z,7.40
2018-06-13T00:24:57.980Z,7.80
2018-06-13T00:27:25.539Z,7.80
2018-06-13T00:29:53.563Z,8.00
2018-06-13T00:32:22.029Z,9.00
2018-06-13T00:34:49.605Z,8.80
2018-06-13T00:37:18.326Z,9.00
2018-06-13T00:39:49.247Z,7.80
2018-06-13T00:42:16.814Z,8.00
2018-06-13T00:44:44.355Z,6.40
2018-06-13T00:47:12.294Z,7.60
2018-06-13T00:49:39.850Z,8.20
2018-06-13T00:52:07.418Z,6.00
2018-06-13T00:54:35.001Z,5.60
2018-06-13T00:57:02.985Z,7.20
2018-06-13T00:59:30.546Z,6.40
2018-06-13T01:01:58.106Z,6.80
2018-06-13T01:04:25.711Z,5.40
2018-06-13T01:06:53.599Z,6.80
2018-06-13T01:09:22.349Z,7.40
2018-06-13T01:11:49.922Z,4.00
2018-06-13T01:14:18.588Z,4.20
2018-06-13T01:16:46.148Z,7.00
2018-06-13T01:19:14.498Z,7.00
2018-06-13T01:21:42.437Z,6.60
2018-06-13T01:24:10.034Z,6.20
2018-06-13T01:26:37.614Z,6.00
2018-06-13T01:29:05.169Z,5.60
2018-06-13T01:31:33.142Z,7.00
2018-06-13T01:34:00.715Z,7.00
2018-06-13T01:36:29.166Z,6.80
2018-06-13T01:38:56.729Z,7.80
2018-06-13T01:41:24.579Z,6.80
2018-06-13T01:43:54.241Z,6.00
2018-06-13T01:46:21.814Z,4.20
2018-06-13T01:48:50.168Z,8.00
2018-06-13T01:51:17.712Z,5.80
2018-06-13T01:53:45.270Z,7.80
2018-06-13T01:56:12.831Z,4.80
2018-06-13T01:58:41.652Z,5.20
2018-06-13T02:01:09.207Z,5.20
2018-06-13T02:03:36.789Z,5.00
2018-06-13T02:06:04.699Z,5.00
2018-06-13T02:08:32.314Z,7.60
2018-06-13T02:10:59.894Z,6.00
2018-06-13T02:13:27.481Z,4.80
2018-06-13T02:15:55.351Z,4.40
2018-06-13T02:18:22.990Z,5.00
2018-06-13T02:20:50.563Z,6.40
2018-06-13T02:23:19.171Z,5.00
2018-06-13T02:25:47.451Z,4.80
2018-06-13T02:28:15.002Z,5.60
2018-06-13T02:30:42.974Z,4.60
2018-06-13T02:33:10.515Z,5.00
2018-06-13T02:35:38.102Z,4.40
2018-06-13T02:38:06.195Z,5.00
2018-06-13T02:40:34.856Z,5.00
2018-06-13T02:43:02.407Z,5.00
2018-06-13T02:45:29.959Z,5.00
2018-06-13T02:47:57.826Z,4.00
2018-06-13T02:50:25.416Z,6.00
2018-06-13T02:52:53.522Z,5.00
2018-06-13T02:55:21.439Z,7.00
2018-06-13T02:57:49.006Z,4.00
2018-06-13T03:00:16.572Z,4.00
2018-06-13T03:02:44.131Z,4.00
2018-06-13T03:05:12.073Z,4.00
2018-06-13T03:07:39.647Z,4.00
2018-06-13T03:10:07.215Z,4.20
2018-06-13T03:12:35.328Z,5.60
2018-06-13T03:15:02.952Z,5.00
2018-06-13T03:17:31.714Z,5.20
2018-06-13T03:19:59.327Z,4.00
2018-06-13T03:22:26.922Z,8.00
2018-06-13T03:24:54.502Z,5.40
2018-06-13T03:27:22.055Z,7.60
2018-06-13T03:29:49.926Z,8.00
2018-06-13T03:32:17.504Z,6.20
2018-06-13T03:34:45.074Z,8.00
2018-06-13T03:37:12.951Z,8.60
2018-06-13T03:39:40.515Z,10.00
2018-06-13T03:42:08.084Z,9.20
2018-06-13T03:44:35.659Z,9.80
2018-06-13T03:47:04.148Z,11.40
2018-06-13T03:49:31.776Z,10.00
2018-06-13T03:51:59.376Z,9.80
2018-06-13T03:54:27.414Z,11.20
2018-06-13T03:56:55.731Z,13.00
2018-06-13T03:59:23.315Z,13.20
2018-06-13T04:01:50.967Z,14.40
2018-06-13T04:04:19.855Z,12.20
2018-06-13T04:06:47.435Z,13.60
2018-06-13T04:09:16.073Z,12.80
2018-06-13T04:11:45.391Z,14.20
2018-06-13T04:14:12.962Z,14.40
2018-06-13T04:16:40.555Z,16.00
2018-06-13T04:19:08.123Z,15.20
2018-06-13T04:21:36.355Z,13.80
2018-06-13T04:24:03.915Z,15.00
2018-06-13T04:26:32.184Z,12.80
2018-06-13T04:28:59.822Z,14.00
2018-06-13T04:31:27.835Z,12.60
2018-06-13T04:33:55.469Z,13.80
2018-06-13T04:36:23.894Z,14.00
2018-06-13T04:38:53.527Z,15.20
2018-06-13T04:41:21.618Z,15.00
2018-06-13T04:43:49.199Z,9.40
2018-06-13T04:46:18.561Z,12.00
2018-06-13T04:48:46.834Z,14.60
2018-06-13T04:51:14.395Z,13.80
2018-06-13T04:53:43.234Z,13.60
2018-06-13T04:56:10.870Z,15.40
2018-06-13T04:58:38.661Z,14.20
2018-06-13T05:01:06.570Z,15.80
2018-06-13T05:03:35.279Z,11.80
2018-06-13T05:06:02.882Z,13.20
2018-06-13T05:08:30.812Z,15.00
2018-06-13T05:10:58.417Z,11.00
2018-06-13T05:13:25.997Z,13.40
2018-06-13T05:15:54.813Z,13.20
2018-06-13T05:18:22.398Z,14.60
2018-06-13T05:20:49.974Z,15.20
2018-06-13T05:23:17.982Z,13.60
2018-06-13T05:25:45.555Z,11.60
2018-06-13T05:28:13.142Z,12.00
2018-06-13T05:30:41.230Z,15.00
2018-06-13T05:33:08.825Z,13.20
2018-06-13T05:35:36.667Z,14.60
2018-06-13T05:38:05.130Z,15.00
2018-06-13T05:40:32.730Z,12.00
2018-06-13T05:43:01.376Z,15.00
2018-06-13T05:45:29.410Z,14.80
2018-06-13T05:47:57.126Z,13.40
2018-06-13T05:50:24.721Z,12.80
2018-06-13T05:52:52.357Z,12.00
2018-06-13T05:55:21.909Z,14.00
2018-06-13T05:57:49.966Z,16.00
2018-06-13T06:00:17.641Z,11.20
2018-06-13T06:02:45.437Z,12.00
2018-06-13T06:05:13.437Z,13.40
2018-06-13T06:07:43.355Z,11.60
2018-06-13T06:10:10.971Z,16.00
2018-06-13T06:12:39.783Z,15.00
2018-06-13T06:15:09.329Z,16.20
2018-06-13T06:17:37.586Z,15.00
2018-06-13T06:20:06.266Z,13.20
2018-06-13T06:22:35.476Z,15.40
2018-06-13T06:25:03.072Z,14.20
2018-06-13T06:27:30.945Z,15.00
2018-06-13T06:29:59.562Z,16.00
2018-06-13T06:32:31.601Z,15.60
2018-06-13T06:34:59.663Z,16.00
2018-06-13T06:37:28.098Z,16.40
2018-06-13T06:39:55.702Z,15.80
2018-06-13T06:42:23.682Z,16.00
2018-06-13T06:44:51.480Z,16.40
2018-06-13T06:47:19.085Z,16.40
2018-06-13T06:49:47.075Z,16.00
2018-06-13T06:52:15.394Z,15.20
2018-06-13T06:54:42.970Z,17.80
2018-06-13T06:57:11.125Z,15.00
2018-06-13T06:59:39.352Z,15.80
2018-06-13T07:02:07.007Z,18.00
2018-06-13T07:04:39.056Z,17.00
2018-06-13T07:07:06.646Z,15.40
2018-06-13T07:09:34.253Z,16.60
2018-06-13T07:12:03.234Z,15.80
2018-06-13T07:14:31.430Z,14.00
2018-06-13T07:17:00.933Z,16.40
2018-06-13T07:19:28.805Z,15.80
2018-06-13T07:21:56.357Z,15.60
2018-06-13T07:24:23.917Z,15.00
2018-06-13T07:26:52.631Z,13.80
2018-06-13T07:29:20.221Z,15.00
2018-06-13T07:31:47.825Z,14.40
2018-06-13T07:34:15.718Z,15.40
2018-06-13T07:36:43.327Z,14.00
2018-06-13T07:39:10.904Z,13.80
2018-06-13T07:41:38.793Z,13.00
2018-06-13T07:44:07.249Z,14.20
2018-06-13T07:46:34.831Z,13.00
2018-06-13T07:49:02.698Z,11.60
2018-06-13T07:51:30.254Z,13.00
2018-06-13T07:53:57.826Z,11.80
2018-06-13T07:56:25.749Z,12.20
2018-06-13T07:58:53.312Z,12.80
2018-06-13T08:01:20.880Z,12.00
2018-06-13T08:03:49.540Z,10.40
2018-06-13T08:06:18.060Z,11.40
2018-06-13T08:08:45.675Z,11.40
2018-06-13T08:11:19.323Z,10.80
2018-06-13T08:13:47.913Z,11.00
2018-06-13T08:16:15.756Z,11.20
2018-06-13T08:18:44.506Z,11.40
2018-06-13T08:21:12.071Z,9.60
2018-06-13T08:23:40.282Z,11.80
2018-06-13T08:26:07.901Z,8.00
2018-06-13T08:28:36.406Z,9.60
2018-06-13T08:31:03.964Z,10.20
2018-06-13T08:33:31.551Z,11.00
2018-06-13T09:55:14.824Z,9.80
2018-06-13T09:57:44.309Z,9.00
2018-06-13T10:02:21.207Z,9.00
2018-06-13T10:04:48.889Z,7.00
2018-06-13T10:07:16.937Z,8.00
2018-06-13T10:09:44.510Z,6.80
2018-06-13T10:12:12.142Z,5.00
2018-06-13T10:18:28.075Z,3.00
2018-06-13T10:20:56.573Z,1.40
2018-06-13T10:23:25.658Z,2.40
2018-06-13T10:25:53.519Z,2.40
2018-06-13T10:28:21.182Z,1.60
2018-06-13T10:30:50.069Z,2.00
2018-06-13T10:33:17.642Z,2.00
2018-06-13T10:35:45.241Z,2.00
2018-06-13T10:38:13.377Z,2.00
2018-06-13T10:40:40.971Z,1.00
2018-06-13T10:43:08.534Z,1.00
2018-06-13T10:45:36.450Z,2.00
2018-06-13T10:48:04.701Z,2.00
2018-06-13T10:50:32.554Z,4.00
2018-06-13T10:53:01.515Z,2.00
2018-06-13T10:55:29.132Z,2.00
2018-06-13T11:00:30.107Z,1.80
2018-06-13T11:02:57.669Z,2.00
2018-06-13T11:05:25.228Z,4.00
2018-06-13T11:07:53.088Z,4.20
2018-06-13T11:10:21.018Z,4.00
2018-06-13T11:12:49.356Z,1.00
2018-06-13T11:15:18.841Z,3.60
2018-06-13T11:17:46.477Z,3.60
2018-06-13T11:20:14.125Z,2.00
2018-06-13T11:22:43.200Z,4.00
2018-06-13T11:25:10.782Z,2.00
2018-06-13T11:27:38.547Z,4.60
2018-06-13T11:30:06.587Z,4.00
2018-06-13T11:32:35.662Z,3.60
2018-06-13T11:35:10.303Z,3.20
2018-06-13T11:37:38.419Z,4.00
2018-06-13T11:40:06.135Z,2.00
2018-06-13T11:42:33.734Z,5.00
2018-06-13T11:45:02.572Z,6.60
2018-06-13T11:47:31.271Z,4.40
2018-06-13T11:49:58.871Z,4.20
2018-06-13T11:52:28.936Z,3.60
2018-06-13T11:54:59.459Z,4.40
2018-06-13T11:57:32.277Z,4.00
2018-06-13T12:00:01.141Z,4.00
2018-06-13T12:02:28.711Z,5.20
2018-06-13T12:04:56.566Z,3.20
2018-06-13T12:07:24.427Z,3.80
2018-06-13T12:09:52.140Z,4.00
2018-06-13T12:12:19.937Z,2.20
2018-06-13T12:14:50.471Z,2.80
2018-06-13T12:17:18.062Z,2.20
2018-06-13T12:19:45.627Z,2.20
2018-06-13T12:22:14.376Z,2.00
2018-06-13T12:24:41.939Z,4.00
2018-06-13T12:27:09.676Z,5.00
2018-06-13T12:29:39.408Z,5.00
2018-06-13T12:32:06.972Z,5.20
2018-06-13T12:34:34.577Z,4.00
2018-06-13T12:37:03.254Z,4.00
2018-06-13T12:39:31.661Z,5.80
2018-06-13T12:42:00.581Z,3.60
2018-06-13T12:44:29.872Z,4.00
2018-06-13T12:46:59.645Z,2.00
2018-06-13T12:49:29.503Z,4.40
2018-06-13T12:51:58.360Z,5.60
2018-06-13T12:54:27.308Z,4.20
2018-06-13T12:56:56.647Z,4.20
2018-06-13T12:59:25.455Z,6.40
2018-06-13T13:01:53.029Z,5.60
2018-06-13T13:04:20.578Z,2.00
2018-06-13T13:06:48.438Z,6.00
2018-06-13T13:09:16.784Z,8.00
2018-06-13T13:11:45.546Z,6.80
2018-06-13T13:14:19.034Z,7.00
2018-06-13T13:16:46.728Z,8.80
2018-06-13T13:19:14.805Z,5.60
2018-06-13T13:21:43.098Z,2.00
2018-06-13T13:24:11.790Z,9.40
2018-06-13T13:26:39.459Z,7.00
2018-06-13T13:29:08.466Z,11.00
2018-06-13T13:31:36.359Z,9.00
2018-06-13T13:34:05.990Z,11.00
2018-06-13T13:36:34.026Z,8.80
2018-06-13T13:39:01.681Z,8.60
2018-06-13T13:41:33.592Z,8.00
2018-06-13T13:44:01.505Z,8.00
2018-06-13T13:46:31.590Z,5.00
2018-06-13T13:49:00.115Z,5.60
2018-06-13T13:51:28.651Z,5.00
2018-06-13T13:53:56.556Z,8.40
2018-06-13T13:56:25.054Z,8.60
2018-06-13T13:58:54.517Z,6.00
2018-06-13T14:01:22.210Z,5.40
2018-06-13T14:03:49.854Z,8.20
2018-06-13T14:06:19.502Z,5.60
2018-06-13T14:08:47.088Z,6.80
2018-06-13T14:11:14.714Z,3.20
2018-06-13T14:13:42.590Z,6.80
2018-06-13T14:16:11.339Z,5.20
2018-06-13T14:18:39.564Z,5.40
2018-06-13T14:21:10.406Z,4.80
2018-06-13T14:23:38.558Z,5.40
2018-06-13T14:26:08.258Z,1.40
2018-06-13T14:28:36.134Z,4.00
2018-06-13T14:31:05.344Z,8.20
2018-06-13T14:33:34.102Z,6.80
2018-06-13T14:36:03.400Z,7.00
2018-06-13T14:38:33.674Z,5.60
2018-06-13T14:41:01.532Z,5.80
2018-06-13T14:43:31.666Z,6.00
2018-06-13T14:46:05.513Z,7.60
2018-06-13T14:48:34.370Z,5.40
2018-06-13T14:51:02.019Z,6.00
2018-06-13T14:53:29.641Z,5.20
2018-06-13T14:56:02.495Z,6.00
2018-06-13T14:58:34.789Z,7.20
2018-06-13T15:01:04.756Z,5.00
2018-06-13T15:03:35.437Z,7.80
2018-06-13T15:06:04.241Z,5.40
2018-06-13T15:08:31.833Z,4.80
2018-06-13T15:10:59.432Z,6.20
2018-06-13T15:13:27.360Z,6.00
2018-06-13T15:15:56.383Z,6.00
2018-06-13T15:18:25.294Z,6.60
2018-06-13T15:20:54.035Z,7.20
2018-06-13T15:23:21.620Z,5.00
2018-06-13T15:25:49.271Z,5.60
2018-06-13T15:28:18.918Z,5.40
2018-06-13T15:30:46.498Z,8.00
2018-06-13T15:33:14.640Z,6.00
2018-06-13T15:35:53.434Z,6.40
2018-06-13T15:38:22.245Z,6.40
2018-06-13T15:40:50.094Z,5.80
2018-06-13T15:43:17.675Z,9.00
2018-06-13T15:45:45.282Z,5.20
2018-06-13T15:48:12.849Z,4.40
2018-06-13T15:50:40.466Z,6.00
2018-06-13T15:53:09.940Z,4.00
2018-06-13T15:55:38.300Z,6.20
2018-06-13T15:58:05.874Z,5.80
2018-06-13T16:00:33.758Z,6.00
2018-06-13T16:03:01.373Z,8.00
2018-06-13T16:05:29.752Z,7.40
2018-06-13T16:07:58.439Z,4.80
2018-06-13T16:10:26.682Z,9.40
2018-06-13T16:12:55.500Z,7.80
2018-06-13T16:15:23.427Z,7.40
2018-06-13T16:17:52.022Z,7.00
2018-06-13T16:32:14.236Z,4.60
2018-06-13T16:34:42.128Z,6.00
2018-06-13T16:37:10.289Z,8.00
2018-06-13T16:39:37.894Z,7.20
2018-06-13T16:42:06.795Z,4.00
2018-06-13T16:44:35.625Z,6.80
2018-06-13T16:47:04.225Z,9.40
2018-06-13T16:49:33.320Z,8.00
2018-06-13T16:52:01.181Z,6.20
2018-06-13T16:54:28.813Z,6.40
2018-06-13T16:56:56.815Z,6.60
2018-06-13T16:59:25.200Z,7.60
2018-06-13T17:01:55.769Z,5.00
2018-06-13T17:04:24.187Z,7.40
2018-06-13T17:06:51.992Z,5.00
2018-06-13T17:09:20.183Z,6.40
2018-06-13T17:11:49.726Z,6.00
2018-06-13T17:14:20.054Z,2.00
2018-06-13T17:16:48.562Z,6.60
2018-06-13T17:19:16.436Z,7.00
2018-06-13T17:21:44.802Z,6.00
2018-06-13T17:24:12.622Z,5.00
2018-06-13T17:26:41.484Z,6.80
2018-06-13T17:29:09.884Z,2.00
2018-06-13T17:31:39.736Z,4.20
2018-06-13T17:34:08.711Z,4.00
2018-06-13T17:36:36.584Z,6.00
2018-06-13T17:39:06.032Z,5.60
2018-06-13T17:41:35.461Z,5.00
2018-06-13T17:44:03.630Z,5.00
2018-06-13T17:46:31.287Z,5.80
2018-06-13T17:49:00.012Z,5.00
2018-06-13T17:51:28.488Z,7.40
2018-06-13T17:53:56.898Z,5.00
2018-06-13T17:56:27.601Z,5.40
2018-06-13T17:58:57.371Z,6.60
2018-06-13T18:01:24.972Z,5.40
2018-06-13T18:03:52.977Z,4.00
2018-06-13T18:06:21.283Z,4.80
2018-06-13T18:08:51.128Z,4.00
2018-06-13T18:11:19.016Z,7.80
2018-06-13T18:13:47.247Z,7.00
2018-06-13T18:16:17.702Z,5.00
2018-06-13T18:18:46.646Z,5.40
2018-06-13T18:21:14.237Z,4.40
2018-06-13T18:23:42.448Z,2.80
2018-06-13T18:26:10.790Z,7.00
2018-06-13T18:28:38.466Z,5.00
2018-06-13T18:31:06.055Z,2.80
2018-06-13T18:33:35.525Z,4.60
2018-06-13T18:36:03.445Z,7.20
2018-06-13T18:38:32.671Z,5.80
2018-06-13T18:41:01.465Z,7.00
2018-06-13T18:43:29.083Z,6.20
2018-06-13T18:45:58.958Z,6.60
2018-06-13T18:48:26.844Z,7.60
2018-06-13T18:50:54.416Z,5.40
2018-06-13T18:53:22.415Z,7.00
2018-06-13T18:55:59.339Z,7.40
2018-06-13T18:58:28.976Z,4.00
2018-06-13T19:00:58.176Z,5.00
2018-06-13T19:03:28.183Z,7.00
2018-06-13T19:05:57.258Z,5.00
2018-06-13T19:08:24.820Z,5.00
2018-06-13T19:10:56.209Z,5.00
2018-06-13T19:13:23.809Z,5.00
2018-06-13T19:15:51.424Z,5.60
2018-06-13T19:18:20.281Z,6.00
2018-06-13T19:20:49.280Z,5.60
2018-06-13T19:23:17.739Z,4.20
2018-06-13T19:25:46.619Z,5.20
2018-06-13T19:28:15.321Z,5.00
2018-06-13T19:30:42.908Z,6.00
2018-06-13T19:33:11.480Z,9.00
2018-06-13T19:35:41.736Z,30.40
2018-06-13T19:38:09.321Z,29.00
2018-06-13T19:40:39.241Z,13.80
2018-06-13T19:43:10.863Z,14.80
2018-06-13T19:45:38.765Z,14.20
2018-06-13T19:48:11.980Z,13.20
2018-06-13T19:50:39.607Z,10.80
2018-06-13T19:53:12.188Z,12.00
2018-06-13T19:55:45.150Z,9.00
2018-06-13T19:58:12.775Z,11.00
2018-06-13T20:00:40.685Z,16.00
2018-06-13T20:05:14.655Z,11.40
2018-06-13T20:07:42.866Z,8.20
2018-06-13T20:10:11.685Z,10.60
2018-06-13T20:12:45.317Z,8.40
2018-06-13T20:15:18.688Z,7.00
2018-06-13T20:17:51.352Z,8.40
2018-06-13T20:20:19.016Z,7.00
2018-06-13T20:22:48.459Z,7.00
2018-06-13T20:25:23.162Z,8.20
2018-06-13T20:27:55.723Z,8.00
2018-06-13T20:31:31.738Z,6.80
2018-06-13T20:33:59.342Z,7.40
2018-06-13T20:36:27.304Z,9.60
2018-06-13T20:38:56.348Z,7.00
2018-06-13T20:41:25.588Z,7.20
2018-06-13T20:43:55.464Z,6.40
2018-06-13T20:46:26.047Z,7.00
2018-06-13T20:48:54.246Z,6.00
2018-06-13T20:51:24.558Z,9.00
2018-06-13T20:53:52.250Z,6.20
2018-06-13T20:56:21.004Z,6.60
2018-06-13T20:58:51.716Z,7.00
2018-06-13T21:01:21.380Z,7.00
2018-06-13T21:03:51.567Z,8.20
2018-06-13T21:06:19.523Z,3.60
2018-06-13T21:08:47.135Z,9.00
2018-06-13T21:11:14.708Z,7.40
2018-06-13T21:13:42.716Z,6.60
2018-06-13T21:16:10.309Z,6.00
2018-06-13T21:18:37.947Z,7.00
2018-06-13T21:21:06.862Z,7.20
2018-06-13T21:23:35.795Z,7.00
2018-06-13T21:26:03.389Z,7.00
2018-06-13T21:28:32.139Z,7.00
2018-06-13T21:31:00.468Z,6.00
2018-06-13T21:33:28.281Z,7.20
2018-06-13T21:35:56.968Z,9.00
2018-06-13T21:38:24.556Z,7.80
2018-06-13T21:40:54.001Z,7.00
2018-06-13T21:43:24.347Z,10.20
2018-06-13T21:45:53.292Z,8.60
2018-06-13T21:48:23.824Z,9.80
2018-06-13T21:50:53.454Z,7.00
2018-06-13T21:53:21.503Z,8.20
2018-06-13T21:55:49.914Z,8.20
2018-06-13T21:58:19.390Z,7.80
2018-06-13T22:00:47.021Z,5.60
2018-06-13T22:03:14.596Z,9.00
2018-06-13T22:05:43.471Z,9.80
2018-06-13T22:08:12.026Z,8.60
2018-06-13T22:10:40.431Z,9.00
2018-06-13T22:13:08.495Z,8.60
2018-06-13T22:15:36.237Z,4.40
2018-06-13T22:18:04.003Z,7.40
2018-06-13T22:20:33.471Z,10.60
2018-06-13T22:23:01.373Z,9.40
2018-06-13T22:25:29.680Z,8.60
2018-06-13T22:27:58.291Z,8.20
2018-06-13T22:30:26.913Z,7.40
2018-06-13T22:32:55.203Z,7.00
2018-06-13T22:35:23.761Z,9.00
2018-06-13T22:37:51.679Z,11.00
2018-06-13T22:40:19.265Z,10.00
2018-06-13T22:42:50.420Z,10.80
2018-06-13T22:45:18.615Z,9.00
2018-06-13T22:47:46.612Z,9.80
2018-06-13T22:50:17.794Z,9.00
2018-06-13T22:52:47.059Z,7.00
2018-06-13T22:55:16.224Z,10.40
2018-06-13T22:57:44.235Z,10.00
2018-06-13T23:00:12.818Z,9.60
2018-06-13T23:02:41.502Z,11.60
2018-06-13T23:05:09.332Z,9.00
2018-06-13T23:07:37.565Z,10.00
2018-06-13T23:10:05.180Z,4.80
2018-06-13T23:12:32.767Z,12.00
2018-06-13T23:15:00.341Z,10.40
2018-06-13T23:17:31.375Z,10.00
2018-06-13T23:19:58.935Z,9.80
2018-06-13T23:22:26.491Z,10.00
2018-06-13T23:24:54.471Z,8.60
2018-06-13T23:27:22.043Z,10.00
2018-06-13T23:29:50.344Z,9.60
2018-06-13T23:32:18.297Z,11.60
2018-06-13T23:34:45.887Z,12.20
2018-06-13T23:37:13.485Z,10.00
2018-06-13T23:39:41.663Z,11.60
2018-06-13T23:42:09.531Z,8.00
2018-06-13T23:44:37.424Z,12.00
2018-06-13T23:47:05.686Z,12.00
2018-06-13T23:49:34.468Z,12.60
2018-06-13T23:52:02.440Z,12.80
2018-06-13T23:54:30.088Z,9.60
2018-06-13T23:56:58.294Z,11.80
2018-06-13T23:59:27.377Z,12.00
